createdAt,value
2022-12-05T00:00:48.131Z,8.95
2022-12-05T00:03:30.972Z,9.50
2022-12-05T00:06:13.792Z,8.93
2022-12-05T00:08:56.490Z,10.43
2022-12-05T00:11:42.635Z,8.55
2022-12-05T00:14:25.815Z,9.32
2022-12-05T00:17:08.620Z,9.75
2022-12-05T00:19:56.621Z,9.68
2022-12-05T00:22:40.190Z,8.93
2022-12-05T00:25:22.951Z,8.82
2022-12-05T00:28:07.040Z,9.30
2022-12-05T00:30:49.773Z,9.65
2022-12-05T00:33:32.389Z,9.75
2022-12-05T00:36:16.024Z,9.55
2022-12-05T00:38:59.966Z,8.68
2022-12-05T00:41:43.067Z,8.70
2022-12-05T00:44:27.184Z,8.13
2022-12-05T00:47:09.893Z,8.63
2022-12-05T00:49:52.730Z,8.38
2022-12-05T00:52:35.574Z,7.80
2022-12-05T00:55:18.233Z,8.32
2022-12-05T00:58:00.991Z,7.82
2022-12-05T01:00:45.025Z,7.95
2022-12-05T01:03:27.722Z,8.02
2022-12-05T01:06:11.207Z,7.28
2022-12-05T01:08:54.349Z,7.68
2022-12-05T01:11:41.168Z,7.35
2022-12-05T01:14:25.318Z,7.63
2022-12-05T01:17:09.431Z,7.93
2022-12-05T01:19:52.110Z,7.70
2022-12-05T01:22:34.753Z,7.18
2022-12-05T01:25:17.457Z,7.80
2022-12-05T01:28:00.148Z,7.68
2022-12-05T01:30:43.776Z,7.45
2022-12-05T01:33:27.789Z,6.85
2022-12-05T01:36:11.499Z,6.82
2022-12-05T01:38:54.420Z,6.88
2022-12-05T01:41:37.987Z,7.15
2022-12-05T01:44:39.398Z,7.75
2022-12-05T01:47:24.625Z,8.40
2022-12-05T01:50:09.474Z,7.18
2022-12-05T01:52:52.113Z,7.55
2022-12-05T01:55:35.648Z,7.82
2022-12-05T01:58:18.689Z,7.40
2022-12-05T02:01:01.453Z,7.95
2022-12-05T02:03:45.537Z,7.82
2022-12-05T02:06:29.902Z,7.97
2022-12-05T02:09:12.519Z,8.35
2022-12-05T02:11:56.763Z,8.20
2022-12-05T02:14:44.687Z,8.05
2022-12-05T02:17:32.015Z,9.00
2022-12-05T02:20:21.271Z,8.68
2022-12-05T02:23:15.356Z,8.20
2022-12-05T02:26:07.083Z,8.68
2022-12-05T02:29:04.990Z,8.95
2022-12-05T02:31:51.182Z,9.15
2022-12-05T02:34:37.476Z,9.07
2022-12-05T02:37:23.967Z,8.95
2022-12-05T02:40:11.397Z,8.85
2022-12-05T02:42:56.850Z,8.68
2022-12-05T02:45:41.021Z,8.35
2022-12-05T02:48:28.975Z,8.85
2022-12-05T02:51:14.213Z,8.55
2022-12-05T02:53:58.700Z,8.48
2022-12-05T02:56:41.818Z,8.82
2022-12-05T02:59:24.597Z,8.85
2022-12-05T03:02:09.070Z,8.63
2022-12-05T03:04:53.228Z,8.52
2022-12-05T03:07:37.408Z,8.90
2022-12-05T03:10:23.052Z,8.68
2022-12-05T03:13:08.634Z,8.55
2022-12-05T03:15:54.297Z,8.82
2022-12-05T03:18:39.085Z,9.07
2022-12-05T03:21:27.165Z,8.57
2022-12-05T03:24:11.234Z,8.25
2022-12-05T03:26:57.615Z,8.98
2022-12-05T03:29:43.763Z,8.63
2022-12-05T03:32:29.635Z,8.70
2022-12-05T03:35:14.942Z,8.23
2022-12-05T03:38:01.043Z,8.45
2022-12-05T03:40:45.444Z,8.45
2022-12-05T03:43:31.746Z,8.15
2022-12-05T03:46:17.652Z,8.93
2022-12-05T03:49:04.965Z,9.55
2022-12-05T03:51:53.090Z,9.13
2022-12-05T03:54:38.779Z,9.65
2022-12-05T03:57:23.650Z,9.35
2022-12-05T04:00:07.638Z,9.40
2022-12-05T04:02:54.283Z,9.23
2022-12-05T04:05:39.227Z,9.63
2022-12-05T04:08:23.717Z,9.48
2022-12-05T04:11:11.374Z,9.88
2022-12-05T04:13:54.765Z,10.30
2022-12-05T04:16:57.164Z,10.35
2022-12-05T04:19:59.618Z,10.63
2022-12-05T04:22:43.052Z,10.80
2022-12-05T04:25:34.384Z,10.68
2022-12-05T04:28:22.613Z,10.40
2022-12-05T04:31:07.457Z,10.85
2022-12-05T04:33:54.183Z,11.05
2022-12-05T04:36:39.219Z,10.55
2022-12-05T04:39:25.071Z,10.80
2022-12-05T04:42:09.622Z,10.27
2022-12-05T04:44:55.494Z,11.18
2022-12-05T04:47:40.457Z,10.13
2022-12-05T04:50:24.190Z,11.15
2022-12-05T04:53:07.743Z,11.45
2022-12-05T04:55:51.769Z,10.32
2022-12-05T04:58:34.508Z,11.88
2022-12-05T05:01:21.175Z,11.18
2022-12-05T05:04:08.006Z,10.60
2022-12-05T05:06:50.755Z,11.30
2022-12-05T05:09:33.516Z,10.93
2022-12-05T05:12:19.210Z,10.00
2022-12-05T05:15:02.251Z,10.55
2022-12-05T05:17:46.322Z,10.10
2022-12-05T05:20:28.971Z,10.25
2022-12-05T05:23:11.626Z,11.45
2022-12-05T05:25:54.883Z,10.30
2022-12-05T05:28:37.672Z,10.82
2022-12-05T05:31:20.998Z,11.13
2022-12-05T05:34:09.424Z,10.95
2022-12-05T05:36:52.801Z,10.68
2022-12-05T05:39:35.515Z,11.23
2022-12-05T05:42:18.217Z,11.05
2022-12-05T05:45:00.935Z,12.20
2022-12-05T05:47:43.715Z,11.35
2022-12-05T05:50:27.786Z,11.20
2022-12-05T05:53:10.445Z,11.25
2022-12-05T05:55:53.136Z,11.43
2022-12-05T05:58:35.977Z,11.68
2022-12-05T06:01:20.286Z,11.15
2022-12-05T06:04:03.717Z,11.60
2022-12-05T06:06:47.831Z,11.45
2022-12-05T06:09:30.487Z,11.75
2022-12-05T06:12:13.126Z,11.38
2022-12-05T06:14:55.841Z,11.90
2022-12-05T06:17:39.045Z,11.48
2022-12-05T06:20:21.787Z,12.05
2022-12-05T06:23:06.054Z,12.15
2022-12-05T06:25:49.476Z,11.90
2022-12-05T06:28:32.349Z,11.98
2022-12-05T06:31:16.792Z,13.10
2022-12-05T06:34:00.961Z,13.00
2022-12-05T06:36:43.719Z,12.13
2022-12-05T06:39:28.172Z,12.52
2022-12-05T06:42:11.104Z,12.02
2022-12-05T06:44:53.789Z,11.82
2022-12-05T06:47:36.523Z,12.02
2022-12-05T06:50:19.275Z,11.63
2022-12-05T06:53:02.038Z,11.45
2022-12-05T06:55:46.418Z,12.10
2022-12-05T06:58:29.252Z,11.55
2022-12-05T07:01:30.562Z,11.88
2022-12-05T07:04:14.128Z,12.98
2022-12-05T07:06:57.231Z,13.30
2022-12-05T07:09:53.852Z,12.50
2022-12-05T07:12:38.010Z,13.25
2022-12-05T07:15:20.757Z,13.32
2022-12-05T07:18:03.450Z,13.82
2022-12-05T07:21:10.626Z,14.10
2022-12-05T07:23:50.001Z,13.02
2022-12-05T07:26:32.793Z,12.40
2022-12-05T07:29:17.267Z,12.02
2022-12-05T07:32:00.055Z,11.48
2022-12-05T07:34:42.866Z,11.68
2022-12-05T07:37:25.614Z,12.05
2022-12-05T07:40:08.754Z,11.82
2022-12-05T07:42:53.375Z,11.80
2022-12-05T07:45:37.490Z,11.73
2022-12-05T07:48:20.349Z,11.65
2022-12-05T07:51:03.570Z,12.00
2022-12-05T07:53:46.394Z,11.40
2022-12-05T07:56:29.306Z,12.05
2022-12-05T07:59:12.027Z,12.35
2022-12-05T08:01:56.291Z,12.98
2022-12-05T08:04:39.012Z,11.88
2022-12-05T08:07:21.828Z,11.93
2022-12-05T08:10:04.903Z,11.40
2022-12-05T08:12:47.713Z,11.55
2022-12-05T08:15:30.420Z,11.93
2022-12-05T08:18:14.667Z,11.32
2022-12-05T08:20:57.467Z,11.05
2022-12-05T08:23:40.605Z,11.20
2022-12-05T08:26:24.658Z,11.90
2022-12-05T08:29:08.906Z,11.40
2022-12-05T08:31:52.469Z,11.32
2022-12-05T08:34:36.647Z,11.10
2022-12-05T08:37:19.306Z,11.33
2022-12-05T08:40:02.109Z,11.05
2022-12-05T08:42:44.959Z,11.52
2022-12-05T08:45:27.721Z,11.98
2022-12-05T08:48:10.552Z,11.00
2022-12-05T08:50:55.226Z,10.63
2022-12-05T08:53:43.885Z,11.02
2022-12-05T08:56:27.771Z,10.77
2022-12-05T08:59:10.433Z,10.63
2022-12-05T09:01:53.232Z,11.98
2022-12-05T09:04:36.051Z,11.82
2022-12-05T09:07:20.222Z,11.30
2022-12-05T09:10:02.933Z,11.60
2022-12-05T09:12:45.741Z,12.60
2022-12-05T09:15:28.497Z,12.45
2022-12-05T09:18:12.704Z,11.50
2022-12-05T09:20:55.411Z,13.48
2022-12-05T09:23:40.065Z,12.27
2022-12-05T09:26:23.947Z,12.32
2022-12-05T09:29:09.990Z,13.45
2022-12-05T09:31:58.074Z,13.57
2022-12-05T09:34:40.860Z,13.15
2022-12-05T09:37:38.736Z,12.60
2022-12-05T09:40:23.772Z,13.10
2022-12-05T09:43:08.038Z,12.70
2022-12-05T09:45:55.357Z,13.45
2022-12-05T09:48:40.896Z,12.45
2022-12-05T09:51:23.974Z,13.07
2022-12-05T09:54:06.888Z,13.20
2022-12-05T09:56:53.050Z,12.50
2022-12-05T09:59:35.938Z,12.80
2022-12-05T10:02:23.148Z,11.20
2022-12-05T10:05:09.357Z,12.25
2022-12-05T10:07:55.290Z,11.50
2022-12-05T10:10:44.533Z,11.65
2022-12-05T10:13:33.259Z,10.55
2022-12-05T10:16:19.603Z,11.63
2022-12-05T10:19:04.496Z,12.18
2022-12-05T10:21:50.753Z,11.82
2022-12-05T10:24:35.095Z,11.48
2022-12-05T10:27:20.560Z,11.10
2022-12-05T10:30:05.945Z,11.73
2022-12-05T10:32:52.129Z,10.70
2022-12-05T10:35:36.526Z,11.82
2022-12-05T10:38:23.921Z,11.85
2022-12-05T10:41:07.769Z,11.90
2022-12-05T10:43:50.476Z,11.63
2022-12-05T10:46:34.611Z,11.75
2022-12-05T10:49:17.506Z,11.35
2022-12-05T10:52:00.665Z,12.05
2022-12-05T10:54:45.554Z,11.90
2022-12-05T10:57:30.064Z,12.38
2022-12-05T11:00:14.983Z,12.05
2022-12-05T11:03:01.070Z,11.27
2022-12-05T11:05:43.855Z,11.45
2022-12-05T11:09:02.083Z,12.48
2022-12-05T11:11:33.366Z,12.13
2022-12-05T11:14:22.869Z,11.73
2022-12-05T11:17:06.799Z,10.98
2022-12-05T11:19:50.956Z,10.40
2022-12-05T11:22:34.761Z,11.32
2022-12-05T11:25:24.978Z,10.40
2022-12-05T11:28:25.143Z,10.15
2022-12-05T11:31:19.907Z,10.52
2022-12-05T11:34:04.884Z,11.02
2022-12-05T11:36:50.921Z,10.25
2022-12-05T11:39:33.985Z,9.55
2022-12-05T11:42:23.270Z,9.93
2022-12-05T11:45:17.714Z,9.30
2022-12-05T11:48:13.465Z,8.98
2022-12-05T11:51:05.194Z,9.80
2022-12-05T11:53:59.667Z,9.35
2022-12-05T11:56:43.513Z,9.02
2022-12-05T11:59:35.955Z,9.60
2022-12-05T12:02:26.492Z,9.77
2022-12-05T12:05:15.140Z,9.40
2022-12-05T12:08:02.907Z,9.35
2022-12-05T12:10:49.788Z,9.55
2022-12-05T12:13:42.972Z,9.27
2022-12-05T12:16:29.359Z,8.52
2022-12-05T12:19:17.688Z,9.38
2022-12-05T12:22:06.428Z,10.05
2022-12-05T12:24:56.126Z,9.43
2022-12-05T12:27:46.191Z,8.88
2022-12-05T12:30:33.616Z,8.85
2022-12-05T12:33:24.000Z,8.57
2022-12-05T12:36:16.700Z,8.63
2022-12-05T12:39:09.000Z,9.40
2022-12-05T12:42:06.746Z,9.65
2022-12-05T12:45:05.897Z,9.05
2022-12-05T12:47:59.920Z,8.88
2022-12-05T12:50:44.337Z,8.82
2022-12-05T12:53:48.058Z,9.23
2022-12-05T12:56:38.802Z,9.02
2022-12-05T12:59:29.993Z,9.35
2022-12-05T13:02:18.384Z,9.30
2022-12-05T13:05:03.079Z,8.93
2022-12-05T13:07:48.942Z,8.40
2022-12-05T13:10:35.903Z,8.57
2022-12-05T13:13:20.439Z,9.15
2022-12-05T13:16:06.332Z,8.98
2022-12-05T13:18:50.952Z,9.18
2022-12-05T13:21:33.742Z,8.60
2022-12-05T13:24:18.671Z,8.32
2022-12-05T13:27:02.614Z,8.23
2022-12-05T13:29:51.109Z,9.27
2022-12-05T13:32:35.181Z,8.20
2022-12-05T13:35:38.833Z,8.98
2022-12-05T13:38:40.140Z,7.88
2022-12-05T13:41:40.624Z,8.75
2022-12-05T13:44:30.393Z,8.30
2022-12-05T13:47:28.370Z,8.05
2022-12-05T13:50:15.302Z,8.05
2022-12-05T13:53:01.537Z,8.25
2022-12-05T13:55:55.556Z,8.50
2022-12-05T13:58:49.219Z,7.30
2022-12-05T14:01:55.728Z,7.78
2022-12-05T14:04:50.209Z,7.95
2022-12-05T14:07:40.908Z,8.02
2022-12-05T14:10:46.112Z,8.13
2022-12-05T14:13:45.147Z,8.23
2022-12-05T14:16:49.513Z,9.43
2022-12-05T14:19:42.012Z,8.90
2022-12-05T14:22:38.502Z,7.43
2022-12-05T14:25:25.113Z,8.20
2022-12-05T14:28:16.828Z,8.23
2022-12-05T14:31:07.998Z,7.35
2022-12-05T14:34:04.599Z,8.25
2022-12-05T14:36:56.058Z,8.52
2022-12-05T14:39:40.681Z,8.30
2022-12-05T14:42:38.491Z,7.53
2022-12-05T14:45:27.749Z,7.50
2022-12-05T14:48:30.756Z,7.38
2022-12-05T14:51:28.352Z,7.95
2022-12-05T14:54:13.370Z,6.95
2022-12-05T14:57:03.981Z,6.97
2022-12-05T14:59:51.374Z,8.55
2022-12-05T15:02:36.231Z,8.55
2022-12-05T15:05:23.270Z,8.73
2022-12-05T15:08:06.677Z,8.45
2022-12-05T15:10:51.396Z,7.30
2022-12-05T15:13:34.214Z,6.90
2022-12-05T15:16:20.528Z,6.90
2022-12-05T15:19:07.153Z,7.30
2022-12-05T15:21:53.777Z,7.40
2022-12-05T15:24:38.390Z,7.25
2022-12-05T15:27:22.154Z,6.75
2022-12-05T15:30:05.386Z,6.35
2022-12-05T15:32:48.714Z,6.82
2022-12-05T15:35:33.590Z,6.85
2022-12-05T15:38:26.833Z,6.57
2022-12-05T15:41:16.814Z,5.90
2022-12-05T15:43:59.649Z,6.30
2022-12-05T15:46:42.933Z,6.05
2022-12-05T15:49:26.583Z,5.82
2022-12-05T15:52:23.975Z,6.13
2022-12-05T15:55:10.020Z,5.88
2022-12-05T15:57:55.840Z,6.30
2022-12-05T16:00:40.423Z,6.53
2022-12-05T16:03:25.701Z,5.85
2022-12-05T16:06:12.238Z,6.10
2022-12-05T16:08:56.177Z,6.07
2022-12-05T16:11:40.476Z,6.03
2022-12-05T16:14:57.807Z,5.18
2022-12-05T16:17:26.757Z,5.47
2022-12-05T16:20:21.882Z,5.95
2022-12-05T16:23:06.008Z,5.25
2022-12-05T16:25:49.184Z,5.60
2022-12-05T16:28:34.948Z,5.50
2022-12-05T16:31:18.317Z,5.75
2022-12-05T16:34:02.278Z,5.60
2022-12-05T16:36:48.483Z,6.32
2022-12-05T16:39:31.321Z,5.88
2022-12-05T16:42:24.393Z,5.93
2022-12-05T16:45:26.977Z,5.75
2022-12-05T16:48:17.044Z,6.00
2022-12-05T16:51:14.755Z,5.68
2022-12-05T16:53:57.624Z,5.70
2022-12-05T16:56:40.750Z,5.18
2022-12-05T16:59:25.586Z,5.07
2022-12-05T17:02:13.321Z,6.13
2022-12-05T17:04:56.352Z,5.18
2022-12-05T17:07:39.309Z,5.57
2022-12-05T17:10:22.028Z,5.63
2022-12-05T17:13:04.893Z,6.30
2022-12-05T17:15:48.011Z,5.90
2022-12-05T17:18:32.337Z,6.07
2022-12-05T17:21:16.063Z,5.57
2022-12-05T17:23:58.762Z,6.10
2022-12-05T17:26:41.421Z,6.05
2022-12-05T17:29:24.109Z,6.28
2022-12-05T17:32:07.266Z,6.25
2022-12-05T17:34:51.316Z,6.25
2022-12-05T17:37:34.047Z,6.50
2022-12-05T17:40:16.850Z,6.50
2022-12-05T17:42:59.647Z,7.20
2022-12-05T17:45:42.483Z,7.25
2022-12-05T17:48:26.722Z,7.20
2022-12-05T17:51:12.994Z,6.53
2022-12-05T17:53:56.153Z,6.10
2022-12-05T17:56:38.895Z,6.07
2022-12-05T17:59:21.721Z,6.20
2022-12-05T18:02:05.508Z,6.28
2022-12-05T18:04:48.234Z,6.65
2022-12-05T18:07:32.316Z,6.22
2022-12-05T18:10:17.405Z,6.00
2022-12-05T18:13:00.797Z,5.60
2022-12-05T18:15:43.720Z,6.15
2022-12-05T18:18:27.410Z,6.00
2022-12-05T18:21:12.822Z,6.22
2022-12-05T18:23:56.886Z,5.55
2022-12-05T18:26:39.694Z,5.93
2022-12-05T18:29:22.488Z,6.53
2022-12-05T18:32:05.302Z,5.88
2022-12-05T18:34:48.107Z,5.50
2022-12-05T18:37:31.451Z,5.65
2022-12-05T18:40:18.357Z,5.90
2022-12-05T18:43:01.307Z,5.60
2022-12-05T18:45:46.660Z,5.60
2022-12-05T18:48:39.498Z,6.32
2022-12-05T18:51:24.241Z,5.65
2022-12-05T18:54:07.413Z,5.82
2022-12-05T18:56:52.793Z,5.78
2022-12-05T18:59:35.575Z,5.90
2022-12-05T19:02:18.327Z,5.95
2022-12-05T19:05:01.229Z,5.90
2022-12-05T19:07:44.080Z,5.97
2022-12-05T19:10:27.027Z,6.22
2022-12-05T19:13:11.209Z,6.18
2022-12-05T19:16:01.989Z,6.53
2022-12-05T19:18:45.030Z,6.70
2022-12-05T19:21:29.781Z,5.97
2022-12-05T19:24:14.043Z,6.18
2022-12-05T19:26:56.786Z,5.68
2022-12-05T19:29:40.989Z,6.10
2022-12-05T19:32:23.719Z,6.10
2022-12-05T19:35:06.722Z,6.07
2022-12-05T19:37:49.473Z,5.85
2022-12-05T19:40:32.667Z,5.57
2022-12-05T19:43:16.023Z,5.75
2022-12-05T19:46:00.768Z,5.60
2022-12-05T19:48:43.560Z,5.85
2022-12-05T19:57:47.980Z,5.78
2022-12-05T20:00:32.097Z,5.97
2022-12-05T20:03:16.296Z,5.78
2022-12-05T20:05:59.521Z,5.90
2022-12-05T20:08:42.465Z,5.70
2022-12-05T20:11:26.469Z,5.85
2022-12-05T20:14:10.730Z,6.40
2022-12-05T20:16:53.596Z,5.88
2022-12-05T20:19:37.742Z,6.00
2022-12-05T20:22:20.411Z,6.45
2022-12-05T20:25:03.661Z,6.07
2022-12-05T20:27:46.693Z,5.38
2022-12-05T20:30:29.615Z,5.47
2022-12-05T20:33:12.548Z,5.70
2022-12-05T20:35:56.831Z,5.85
2022-12-05T20:38:40.213Z,6.28
2022-12-05T20:41:23.331Z,6.55
2022-12-05T20:44:07.281Z,6.13
2022-12-05T20:46:50.474Z,6.18
2022-12-05T20:49:34.842Z,6.40
2022-12-05T20:52:19.085Z,6.47
2022-12-05T20:55:01.926Z,6.15
2022-12-05T20:57:45.045Z,6.28
2022-12-05T21:00:28.043Z,6.38
2022-12-05T21:03:16.868Z,6.95
2022-12-05T21:06:00.434Z,7.00
2022-12-05T21:08:44.881Z,6.05
2022-12-05T21:11:28.558Z,6.40
2022-12-05T21:14:11.749Z,6.18
2022-12-05T21:16:54.666Z,6.25
2022-12-05T21:19:37.682Z,7.00
2022-12-05T21:22:21.247Z,6.45
2022-12-05T21:25:05.794Z,6.85
2022-12-05T21:27:49.206Z,6.82
2022-12-05T21:30:32.122Z,6.57
2022-12-05T21:33:14.951Z,7.22
2022-12-05T21:35:57.813Z,6.85
2022-12-05T21:38:40.591Z,6.43
2022-12-05T21:41:24.820Z,7.47
2022-12-05T21:44:07.994Z,6.55
2022-12-05T21:46:50.878Z,6.90
2022-12-05T21:49:33.611Z,6.75
2022-12-05T21:52:16.299Z,6.63
2022-12-05T21:54:59.044Z,6.57
2022-12-05T21:57:43.430Z,6.53
2022-12-05T22:00:26.161Z,6.60
2022-12-05T22:03:08.886Z,6.55
2022-12-05T22:05:51.588Z,6.57
2022-12-05T22:08:36.063Z,6.80
2022-12-05T22:11:19.992Z,7.13
2022-12-05T22:14:04.173Z,6.75
2022-12-05T22:16:46.913Z,7.10
2022-12-05T22:19:30.293Z,7.30
2022-12-05T22:22:12.988Z,6.53
2022-12-05T22:24:55.816Z,6.95
2022-12-05T22:27:38.746Z,6.93
2022-12-05T22:30:22.772Z,6.95
2022-12-05T22:33:05.483Z,6.70
2022-12-05T22:35:51.180Z,7.00
2022-12-05T22:38:35.429Z,6.90
2022-12-05T22:41:19.242Z,6.35
2022-12-05T22:44:01.909Z,7.00
2022-12-05T22:46:47.162Z,6.15
2022-12-05T22:49:29.851Z,5.93
2022-12-05T22:52:12.606Z,6.38
2022-12-05T22:54:55.329Z,6.60
2022-12-05T22:57:38.017Z,6.25
2022-12-05T23:00:20.921Z,6.18
2022-12-05T23:03:05.211Z,5.85
2022-12-05T23:05:47.990Z,6.70
2022-12-05T23:08:30.738Z,6.15
2022-12-05T23:11:13.513Z,7.20
2022-12-05T23:14:01.436Z,6.15
2022-12-05T23:16:44.657Z,6.30
2022-12-05T23:19:28.830Z,6.35
2022-12-05T23:22:11.554Z,6.57
2022-12-05T23:24:54.485Z,7.07
2022-12-05T23:27:37.353Z,6.30
2022-12-05T23:30:20.313Z,6.50
2022-12-05T23:33:03.131Z,6.50
2022-12-05T23:35:47.313Z,6.55
2022-12-05T23:38:29.996Z,5.80
2022-12-05T23:41:13.923Z,5.95
2022-12-05T23:43:56.969Z,6.05
2022-12-05T23:46:39.817Z,6.45
2022-12-05T23:49:22.487Z,6.57
2022-12-05T23:52:06.741Z,5.93
2022-12-05T23:54:49.421Z,6.00
2022-12-05T23:57:32.065Z,6.47
